Terminal Aerodrome Forecast
Issued by NWS

Home | Current Version | Previous Version | Text Only | Print | Product List | Glossary Off
Versions: 1 2 3 4 5 6 7 8 9 10 11 12 13 14 15 16 17 18 19 20 21 22 23 24 25 26 27 28 29 30 31 32 33 34

064
FTUS43 KGRB 011109 AAA
TAFRHI
TAF AMD
KRHI 011109Z 0111/0206 29005KT 6SM -SN BR SCT006 OVC012
      TEMPO 0111/0112 6SM -SHSN BKN006
     FM011200 30007KT 6SM -SHSN SCT005 OVC011
     FM011900 30007KT P6SM OVC015=

USA.gov is the U.S. government's official web portal to all federal, state and local government web resources and services.